Damar, Kansas
Current Conditions -  °F | °C
As of 5:53 AM on Thursday 27 Nov 2014 (Local Time) from KHLC Reporting Station
Clear Clear  
Wind Chill: 21°   Ceiling: Unl
Heat Index: 21°   Visibility: 10mi
Dew Point: 15°   Wind: 0mph
Humidity: 78%   Direction: NA
Pressure: 30.41"   Gusts: NA
Location:  39.32°N, 99.58°W
Report Text: KHLC 271153Z AUTO 00000KT 10SM CLR M06/M09 A3041 RMK AO2 SLP321 T10611094 10006 21067 58004
Loading
Personal Weather Stations






























Interactive Weather Map New forecast layout! Learn more

10-Day Weather Forecast

Advertisements
Track Severe Weather on mobile